<?xml version="1.0" encoding="UTF-8"?>
<gpx creator="Patrick Hooper" version="1.1" xmlns="http://www.topografix.com/GPX/1/1" xmlns:xsi="http://www.w3.org/2001/XMLSchema-instance" xsi:schemaLocation="http://www.topografix.com/GPX/1/1 http://www.topografix.com/GPX/1/1/gpx.xsd http://www.garmin.com/xmlschemas/GpxExtensions/v3 http://www.garmin.com/xmlschemas/GpxExtensionsv3.xsd http://www.garmin.com/xmlschemas/TrackPointExtension/v1 http://www.garmin.com/xmlschemas/TrackPointExtensionv1.xsd">
  <metadata>
    <name>Activity</name>
  </metadata>
  <trk>
    <name>a</name>
    <trkseg>
      <trkpt lat="31.217160733016772" lon="35.35935826599598">
        <ele>-365.5</ele>
        <time>2026-06-10T14:58:50.978Z</time>
      </trkpt>
      <trkpt lat="31.217206855249398" lon="35.35942048431658">
        <ele>-365.5</ele>
        <time>2026-06-10T14:58:51.978Z</time>
      </trkpt>
      <trkpt lat="31.216814321655356" lon="35.35981834739041">
        <ele>-390</ele>
        <time>2026-06-10T14:58:52.978Z</time>
      </trkpt>
      <trkpt lat="31.216730688886287" lon="35.35977904557688">
        <ele>-390</ele>
        <time>2026-06-10T14:58:53.978Z</time>
      </trkpt>
      <trkpt lat="31.216622841729734" lon="35.35981648474522">
        <ele>-390</ele>
        <time>2026-06-10T14:58:54.978Z</time>
      </trkpt>
      <trkpt lat="31.216351268060905" lon="35.36001709163227">
        <ele>-383</ele>
        <time>2026-06-10T14:58:55.978Z</time>
      </trkpt>
      <trkpt lat="31.216111173095804" lon="35.36024899095853">
        <ele>-383</ele>
        <time>2026-06-10T14:58:56.978Z</time>
      </trkpt>
      <trkpt lat="31.216039833784993" lon="35.36010985136278">
        <ele>-383</ele>
        <time>2026-06-10T14:58:57.978Z</time>
      </trkpt>
      <trkpt lat="31.215946519131183" lon="35.35995885661913">
        <ele>-382</ele>
        <time>2026-06-10T14:58:58.978Z</time>
      </trkpt>
      <trkpt lat="31.215684254818058" lon="35.35953448026332">
        <ele>-381</ele>
        <time>2026-06-10T14:58:59.978Z</time>
      </trkpt>
      <trkpt lat="31.215642345301262" lon="35.35942868201648">
        <ele>-359</ele>
        <time>2026-06-10T14:59:00.978Z</time>
      </trkpt>
      <trkpt lat="31.215642345301262" lon="35.3593508234475">
        <ele>-359</ele>
        <time>2026-06-10T14:59:01.978Z</time>
      </trkpt>
      <trkpt lat="31.215752241367525" lon="35.3589497959379">
        <ele>-381</ele>
        <time>2026-06-10T14:59:02.978Z</time>
      </trkpt>
      <trkpt lat="31.215896037576258" lon="35.358599618642025">
        <ele>-370</ele>
        <time>2026-06-10T14:59:03.978Z</time>
      </trkpt>
      <trkpt lat="31.21613759542047" lon="35.358478839719915">
        <ele>-370</ele>
        <time>2026-06-10T14:59:04.978Z</time>
      </trkpt>
      <trkpt lat="31.21620560920698" lon="35.35844483282666">
        <ele>-370</ele>
        <time>2026-06-10T14:59:05.978Z</time>
      </trkpt>
      <trkpt lat="31.2162994865246" lon="35.358281665107945">
        <ele>-370</ele>
        <time>2026-06-10T14:59:06.978Z</time>
      </trkpt>
      <trkpt lat="31.216360953815897" lon="35.35810806657616">
        <ele>-370</ele>
        <time>2026-06-10T14:59:07.978Z</time>
      </trkpt>
      <trkpt lat="31.216370080777335" lon="35.35788529421133">
        <ele>-358</ele>
        <time>2026-06-10T14:59:08.978Z</time>
      </trkpt>
      <trkpt lat="31.21685995646253" lon="35.357689902730804">
        <ele>-343</ele>
        <time>2026-06-10T14:59:09.978Z</time>
      </trkpt>
      <trkpt lat="31.216889945050106" lon="35.357599936968086">
        <ele>-343</ele>
        <time>2026-06-10T14:59:10.978Z</time>
      </trkpt>
      <trkpt lat="31.216649850085002" lon="35.35748985463731">
        <ele>-343</ele>
        <time>2026-06-10T14:59:11.978Z</time>
      </trkpt>
      <trkpt lat="31.216929991921706" lon="35.356929943492936">
        <ele>-324</ele>
        <time>2026-06-10T14:59:12.978Z</time>
      </trkpt>
      <trkpt lat="31.217069876575543" lon="35.35680998914264">
        <ele>-324</ele>
        <time>2026-06-10T14:59:13.978Z</time>
      </trkpt>
      <trkpt lat="31.217329901844188" lon="35.35672989539943">
        <ele>-304</ele>
        <time>2026-06-10T14:59:14.978Z</time>
      </trkpt>
      <trkpt lat="31.217586659432605" lon="35.35673992938846">
        <ele>-304</ele>
        <time>2026-06-10T14:59:15.978Z</time>
      </trkpt>
      <trkpt lat="31.217839894097445" lon="35.35674982570298">
        <ele>-304</ele>
        <time>2026-06-10T14:59:16.978Z</time>
      </trkpt>
      <trkpt lat="31.217859824400986" lon="35.35665985994026">
        <ele>-304</ele>
        <time>2026-06-10T14:59:17.978Z</time>
      </trkpt>
      <trkpt lat="31.217649904287978" lon="35.356549963873995">
        <ele>-304</ele>
        <time>2026-06-10T14:59:18.978Z</time>
      </trkpt>
      <trkpt lat="31.217649904287978" lon="35.35643988154322">
        <ele>-304</ele>
        <time>2026-06-10T14:59:19.978Z</time>
      </trkpt>
      <trkpt lat="31.21811984966963" lon="35.35629999688938">
        <ele>-277</ele>
        <time>2026-06-10T14:59:20.978Z</time>
      </trkpt>
      <trkpt lat="31.21914989246018" lon="35.35510995287694">
        <ele>-273</ele>
        <time>2026-06-10T14:59:21.978Z</time>
      </trkpt>
      <trkpt lat="31.21937992914125" lon="35.35493989337101">
        <ele>-273</ele>
        <time>2026-06-10T14:59:22.978Z</time>
      </trkpt>
      <trkpt lat="31.21942877166185" lon="35.35483326766503">
        <ele>-254</ele>
        <time>2026-06-10T14:59:23.978Z</time>
      </trkpt>
      <trkpt lat="31.219489825207514" lon="35.35469998467043">
        <ele>-235</ele>
        <time>2026-06-10T14:59:24.978Z</time>
      </trkpt>
      <trkpt lat="31.219599907538292" lon="35.35462994921125">
        <ele>-235</ele>
        <time>2026-06-10T14:59:25.978Z</time>
      </trkpt>
      <trkpt lat="31.219809827651304" lon="35.35459996062368">
        <ele>-235</ele>
        <time>2026-06-10T14:59:26.978Z</time>
      </trkpt>
      <trkpt lat="31.22030994788505" lon="35.354199678172165">
        <ele>-255</ele>
        <time>2026-06-10T14:59:27.978Z</time>
      </trkpt>
      <trkpt lat="31.220469949106946" lon="35.35401974664673">
        <ele>-255</ele>
        <time>2026-06-10T14:59:28.978Z</time>
      </trkpt>
      <trkpt lat="31.220549856585635" lon="35.35379976824969">
        <ele>-228</ele>
        <time>2026-06-10T14:59:29.978Z</time>
      </trkpt>
      <trkpt lat="31.220689927503987" lon="35.35369993046746">
        <ele>-240</ele>
        <time>2026-06-10T14:59:30.978Z</time>
      </trkpt>
      <trkpt lat="31.221319874107536" lon="35.353569917833134">
        <ele>-240</ele>
        <time>2026-06-10T14:59:31.978Z</time>
      </trkpt>
      <trkpt lat="31.221479875329432" lon="35.35340973034672">
        <ele>-240</ele>
        <time>2026-06-10T14:59:32.978Z</time>
      </trkpt>
      <trkpt lat="31.221429956438318" lon="35.353289962260945">
        <ele>-240</ele>
        <time>2026-06-10T14:59:33.978Z</time>
      </trkpt>
      <trkpt lat="31.221159872885643" lon="35.35322979882128">
        <ele>-240</ele>
        <time>2026-06-10T14:59:34.978Z</time>
      </trkpt>
      <trkpt lat="31.22114981460161" lon="35.35308991416745">
        <ele>-240</ele>
        <time>2026-06-10T14:59:35.978Z</time>
      </trkpt>
      <trkpt lat="31.221302632515087" lon="35.353040020367494">
        <ele>-229.5</ele>
        <time>2026-06-10T14:59:36.978Z</time>
      </trkpt>
      <trkpt lat="31.22163987655133" lon="35.352929912945555">
        <ele>-219</ele>
        <time>2026-06-10T14:59:37.978Z</time>
      </trkpt>
      <trkpt lat="31.222489987816438" lon="35.35207998794496">
        <ele>-194</ele>
        <time>2026-06-10T14:59:38.978Z</time>
      </trkpt>
      <trkpt lat="31.222779815408135" lon="35.35167989175796">
        <ele>-194</ele>
        <time>2026-06-10T14:59:39.978Z</time>
      </trkpt>
      <trkpt lat="31.22314992300756" lon="35.35149996023252">
        <ele>-202</ele>
        <time>2026-06-10T14:59:40.978Z</time>
      </trkpt>
      <trkpt lat="31.223429878579747" lon="35.35142992477335">
        <ele>-202</ele>
        <time>2026-06-10T14:59:41.978Z</time>
      </trkpt>
      <trkpt lat="31.22354983293004" lon="35.35115984122067">
        <ele>-155</ele>
        <time>2026-06-10T14:59:42.978Z</time>
      </trkpt>
      <trkpt lat="31.22369996213242" lon="35.35106987545795">
        <ele>-155</ele>
        <time>2026-06-10T14:59:43.978Z</time>
      </trkpt>
      <trkpt lat="31.223879893657863" lon="35.351079933741985">
        <ele>-155</ele>
        <time>2026-06-10T14:59:44.978Z</time>
      </trkpt>
      <trkpt lat="31.224149977210537" lon="35.35131984244257">
        <ele>-157</ele>
        <time>2026-06-10T14:59:45.978Z</time>
      </trkpt>
      <trkpt lat="31.224181934786575" lon="35.351330511509104">
        <ele>-157</ele>
        <time>2026-06-10T14:59:46.978Z</time>
      </trkpt>
      <trkpt lat="31.224269931560826" lon="35.351359889314175">
        <ele>-157</ele>
        <time>2026-06-10T14:59:47.978Z</time>
      </trkpt>
      <trkpt lat="31.224539828848982" lon="35.35125986526742">
        <ele>-157</ele>
        <time>2026-06-10T14:59:48.978Z</time>
      </trkpt>
      <trkpt lat="31.2248298427052" lon="35.35096985141121">
        <ele>-163</ele>
        <time>2026-06-10T14:59:49.978Z</time>
      </trkpt>
      <trkpt lat="31.22520982232414" lon="35.35081990847334">
        <ele>-163</ele>
        <time>2026-06-10T14:59:50.978Z</time>
      </trkpt>
      <trkpt lat="31.22554994133599" lon="35.350579999772755">
        <ele>-163</ele>
        <time>2026-06-10T14:59:51.978Z</time>
      </trkpt>
      <trkpt lat="31.22681989282712" lon="35.35029985793605">
        <ele>-142</ele>
        <time>2026-06-10T14:59:52.978Z</time>
      </trkpt>
      <trkpt lat="31.227359873667954" lon="35.350339904807655">
        <ele>-139</ele>
        <time>2026-06-10T14:59:53.978Z</time>
      </trkpt>
      <trkpt lat="31.227799830462036" lon="35.35014972873367">
        <ele>-139</ele>
        <time>2026-06-10T14:59:54.978Z</time>
      </trkpt>
      <trkpt lat="31.228259903824178" lon="35.35008993782304">
        <ele>-137</ele>
        <time>2026-06-10T14:59:55.978Z</time>
      </trkpt>
      <trkpt lat="31.22847988222122" lon="35.34998991377629">
        <ele>-137</ele>
        <time>2026-06-10T14:59:56.978Z</time>
      </trkpt>
      <trkpt lat="31.228706465024416" lon="35.34993866209386">
        <ele>-138.5</ele>
        <time>2026-06-10T14:59:57.978Z</time>
      </trkpt>
      <trkpt lat="31.229099956805257" lon="35.34984965659342">
        <ele>-140</ele>
        <time>2026-06-10T14:59:58.978Z</time>
      </trkpt>
      <trkpt lat="31.22950992501177" lon="35.34960993415736">
        <ele>-99</ele>
        <time>2026-06-10T14:59:59.978Z</time>
      </trkpt>
      <trkpt lat="31.22973996169284" lon="35.34965985304847">
        <ele>-99</ele>
        <time>2026-06-10T15:00:00.978Z</time>
      </trkpt>
      <trkpt lat="31.229909834934247" lon="35.34960993415736">
        <ele>-90</ele>
        <time>2026-06-10T15:00:01.978Z</time>
      </trkpt>
      <trkpt lat="31.230319989405274" lon="35.349269815145504">
        <ele>-90</ele>
        <time>2026-06-10T15:00:02.978Z</time>
      </trkpt>
      <trkpt lat="31.230419827187504" lon="35.349239826557934">
        <ele>-90</ele>
        <time>2026-06-10T15:00:03.978Z</time>
      </trkpt>
      <trkpt lat="31.230669980436637" lon="35.3492999899976">
        <ele>-86</ele>
        <time>2026-06-10T15:00:04.978Z</time>
      </trkpt>
      <trkpt lat="31.23130998532422" lon="35.34914967453069">
        <ele>-86</ele>
        <time>2026-06-10T15:00:05.978Z</time>
      </trkpt>
      <trkpt lat="31.231449869978054" lon="35.34901984816089">
        <ele>-86</ele>
        <time>2026-06-10T15:00:06.978Z</time>
      </trkpt>
      <trkpt lat="31.231519905437228" lon="35.34880992804788">
        <ele>-68</ele>
        <time>2026-06-10T15:00:07.978Z</time>
      </trkpt>
      <trkpt lat="31.231789988989906" lon="35.34850985590763">
        <ele>-68</ele>
        <time>2026-06-10T15:00:08.978Z</time>
      </trkpt>
      <trkpt lat="31.231819977577477" lon="35.348409831860884">
        <ele>-68</ele>
        <time>2026-06-10T15:00:09.978Z</time>
      </trkpt>
      <trkpt lat="31.231989850818884" lon="35.348349854685736">
        <ele>-68</ele>
        <time>2026-06-10T15:00:10.978Z</time>
      </trkpt>
      <trkpt lat="31.23217984062835" lon="35.348369971253796">
        <ele>-68</ele>
        <time>2026-06-10T15:00:11.978Z</time>
      </trkpt>
      <trkpt lat="31.232309853262674" lon="35.34807995739758">
        <ele>-71</ele>
        <time>2026-06-10T15:00:12.978Z</time>
      </trkpt>
      <trkpt lat="31.23290999754317" lon="35.34774989666976">
        <ele>-53</ele>
        <time>2026-06-10T15:00:13.978Z</time>
      </trkpt>
      <trkpt lat="31.232979846737827" lon="35.34752991827272">
        <ele>-53</ele>
        <time>2026-06-10T15:00:14.978Z</time>
      </trkpt>
      <trkpt lat="31.23352988586269" lon="35.34693983227625">
        <ele>-30</ele>
        <time>2026-06-10T15:00:15.978Z</time>
      </trkpt>
      <trkpt lat="31.233773327051942" lon="35.34684914198661">
        <ele>-37</ele>
        <time>2026-06-10T15:00:16.978Z</time>
      </trkpt>
      <trkpt lat="31.23403987811595" lon="35.346749842466785">
        <ele>-44</ele>
        <time>2026-06-10T15:00:17.978Z</time>
      </trkpt>
      <trkpt lat="31.234319833688136" lon="35.346499875482166">
        <ele>-44</ele>
        <time>2026-06-10T15:00:18.978Z</time>
      </trkpt>
      <trkpt lat="31.23459997552484" lon="35.34641996800348">
        <ele>-44</ele>
        <time>2026-06-10T15:00:19.978Z</time>
      </trkpt>
      <trkpt lat="31.234799837353822" lon="35.34644995659105">
        <ele>-44</ele>
        <time>2026-06-10T15:00:20.978Z</time>
      </trkpt>
      <trkpt lat="31.234809895637852" lon="35.34640990971945">
        <ele>-28</ele>
        <time>2026-06-10T15:00:21.978Z</time>
      </trkpt>
      <trkpt lat="31.235259910715964" lon="35.346369862847844">
        <ele>-4</ele>
        <time>2026-06-10T15:00:22.978Z</time>
      </trkpt>
      <trkpt lat="31.2354398422414" lon="35.346219919909984">
        <ele>-4</ele>
        <time>2026-06-10T15:00:23.978Z</time>
      </trkpt>
      <trkpt lat="31.235589971443787" lon="35.34617987303838">
        <ele>-4</ele>
        <time>2026-06-10T15:00:24.978Z</time>
      </trkpt>
      <trkpt lat="31.235689995490535" lon="35.34607984899163">
        <ele>5</ele>
        <time>2026-06-10T15:00:25.978Z</time>
      </trkpt>
      <trkpt lat="31.23593996247515" lon="35.34552999613128">
        <ele>22</ele>
        <time>2026-06-10T15:00:26.978Z</time>
      </trkpt>
      <trkpt lat="31.236729910300596" lon="35.34476985062889">
        <ele>15</ele>
        <time>2026-06-10T15:00:27.978Z</time>
      </trkpt>
      <trkpt lat="31.23687985323846" lon="35.344469964753166">
        <ele>35</ele>
        <time>2026-06-10T15:00:28.978Z</time>
      </trkpt>
      <trkpt lat="31.23699999385327" lon="35.34440998757802">
        <ele>35</ele>
        <time>2026-06-10T15:00:29.978Z</time>
      </trkpt>
      <trkpt lat="31.237149936791134" lon="35.34416989261292">
        <ele>35</ele>
        <time>2026-06-10T15:00:30.978Z</time>
      </trkpt>
      <trkpt lat="31.237144162591044" lon="35.34404081130119">
        <ele>35</ele>
        <time>2026-06-10T15:00:31.978Z</time>
      </trkpt>
      <trkpt lat="31.237037246757087" lon="35.343956060945004">
        <ele>35</ele>
        <time>2026-06-10T15:00:32.978Z</time>
      </trkpt>
      <trkpt lat="31.23667999140948" lon="35.34397990280345">
        <ele>35</ele>
        <time>2026-06-10T15:00:33.978Z</time>
      </trkpt>
      <trkpt lat="31.236544390839587" lon="35.34398753964873">
        <ele>35</ele>
        <time>2026-06-10T15:00:34.978Z</time>
      </trkpt>
      <trkpt lat="31.235629832050872" lon="35.344039879978595">
        <ele>45</ele>
        <time>2026-06-10T15:00:35.978Z</time>
      </trkpt>
      <trkpt lat="31.23498982716329" lon="35.34398996108748">
        <ele>45</ele>
        <time>2026-06-10T15:00:36.978Z</time>
      </trkpt>
      <trkpt lat="31.234309961668625" lon="35.34429990524724">
        <ele>38</ele>
        <time>2026-06-10T15:00:37.978Z</time>
      </trkpt>
      <trkpt lat="31.23373999224022" lon="35.34491979356676">
        <ele>36</ele>
        <time>2026-06-10T15:00:38.978Z</time>
      </trkpt>
      <trkpt lat="31.233579991018324" lon="35.34494996841885">
        <ele>36</ele>
        <time>2026-06-10T15:00:39.978Z</time>
      </trkpt>
      <trkpt lat="31.233199825134868" lon="35.344879746695156">
        <ele>36</ele>
        <time>2026-06-10T15:00:40.978Z</time>
      </trkpt>
      <trkpt lat="31.232337346474576" lon="35.34528631427012">
        <ele>36</ele>
        <time>2026-06-10T15:00:41.978Z</time>
      </trkpt>
      <trkpt lat="31.231799861009417" lon="35.34553968188628">
        <ele>36</ele>
        <time>2026-06-10T15:00:42.978Z</time>
      </trkpt>
      <trkpt lat="31.23165196698126" lon="35.34555402425425">
        <ele>39</ele>
        <time>2026-06-10T15:00:43.978Z</time>
      </trkpt>
      <trkpt lat="31.231551570405475" lon="35.34565293071388">
        <ele>39</ele>
        <time>2026-06-10T15:00:44.978Z</time>
      </trkpt>
      <trkpt lat="31.231498485017536" lon="35.34576077787043">
        <ele>39</ele>
        <time>2026-06-10T15:00:45.978Z</time>
      </trkpt>
      <trkpt lat="31.23118984470941" lon="35.346029930100514">
        <ele>42</ele>
        <time>2026-06-10T15:00:46.978Z</time>
      </trkpt>
      <trkpt lat="31.231153895657226" lon="35.34611337660507">
        <ele>42</ele>
        <time>2026-06-10T15:00:47.978Z</time>
      </trkpt>
      <trkpt lat="31.231113848785622" lon="35.346554078457224">
        <ele>30</ele>
        <time>2026-06-10T15:00:48.978Z</time>
      </trkpt>
      <trkpt lat="31.231379834518876" lon="35.34534987834133">
        <ele>40</ele>
        <time>2026-06-10T15:00:49.978Z</time>
      </trkpt>
      <trkpt lat="31.230559898105856" lon="35.34441985959753">
        <ele>41</ele>
        <time>2026-06-10T15:00:50.978Z</time>
      </trkpt>
      <trkpt lat="31.230099824743714" lon="35.343509957421794">
        <ele>42</ele>
        <time>2026-06-10T15:00:51.978Z</time>
      </trkpt>
      <trkpt lat="31.230067275655394" lon="35.343460674889776">
        <ele>44</ele>
        <time>2026-06-10T15:00:52.978Z</time>
      </trkpt>
      <trkpt lat="31.22972990340881" lon="35.3429498600129">
        <ele>46</ele>
        <time>2026-06-10T15:00:53.978Z</time>
      </trkpt>
      <trkpt lat="31.229479936424195" lon="35.34235996028095">
        <ele>46</ele>
        <time>2026-06-10T15:00:54.978Z</time>
      </trkpt>
      <trkpt lat="31.229069968217686" lon="35.33999980255961">
        <ele>44</ele>
        <time>2026-06-10T15:00:55.978Z</time>
      </trkpt>
      <trkpt lat="31.228979816190446" lon="35.338809944811686">
        <ele>47</ele>
        <time>2026-06-10T15:00:56.978Z</time>
      </trkpt>
      <trkpt lat="31.229029921346083" lon="35.33841990690872">
        <ele>47</ele>
        <time>2026-06-10T15:00:57.978Z</time>
      </trkpt>
      <trkpt lat="31.22908053555919" lon="35.33833815622796">
        <ele>47</ele>
        <time>2026-06-10T15:00:58.978Z</time>
      </trkpt>
      <trkpt lat="31.229164963122418" lon="35.33820179115687">
        <ele>47</ele>
        <time>2026-06-10T15:00:59.978Z</time>
      </trkpt>
      <trkpt lat="31.229353835344774" lon="35.337798714737566">
        <ele>46</ele>
        <time>2026-06-10T15:01:00.978Z</time>
      </trkpt>
      <trkpt lat="31.229387921751766" lon="35.33769384781332">
        <ele>46</ele>
        <time>2026-06-10T15:01:01.978Z</time>
      </trkpt>
      <trkpt lat="31.229395931126085" lon="35.33736099311771">
        <ele>46</ele>
        <time>2026-06-10T15:01:02.978Z</time>
      </trkpt>
      <trkpt lat="31.229359982073902" lon="35.33705086269343">
        <ele>39</ele>
        <time>2026-06-10T15:01:03.978Z</time>
      </trkpt>
      <trkpt lat="31.229360913396498" lon="35.33689495929096">
        <ele>39</ele>
        <time>2026-06-10T15:01:04.978Z</time>
      </trkpt>
      <trkpt lat="31.22943988955259" lon="35.33660289652503">
        <ele>39</ele>
        <time>2026-06-10T15:01:05.978Z</time>
      </trkpt>
      <trkpt lat="31.229428899945965" lon="35.33651982254952">
        <ele>39</ele>
        <time>2026-06-10T15:01:06.978Z</time>
      </trkpt>
      <trkpt lat="31.229535381579232" lon="35.33672720411754">
        <ele>39</ele>
        <time>2026-06-10T15:01:07.978Z</time>
      </trkpt>
      <trkpt lat="31.229659867949632" lon="35.33696965136311">
        <ele>39</ele>
        <time>2026-06-10T15:01:08.978Z</time>
      </trkpt>
      <trkpt lat="31.230449815775078" lon="35.3374399692738">
        <ele>41</ele>
        <time>2026-06-10T15:01:09.978Z</time>
      </trkpt>
      <trkpt lat="31.231029843487512" lon="35.33750981846846">
        <ele>33</ele>
        <time>2026-06-10T15:01:10.978Z</time>
      </trkpt>
      <trkpt lat="31.23133196453747" lon="35.33750423053289">
        <ele>33</ele>
        <time>2026-06-10T15:01:11.978Z</time>
      </trkpt>
      <trkpt lat="31.23149140696581" lon="35.33754763016584">
        <ele>29</ele>
        <time>2026-06-10T15:01:12.978Z</time>
      </trkpt>
      <trkpt lat="31.231609871199947" lon="35.33757966766312">
        <ele>29</ele>
        <time>2026-06-10T15:01:13.978Z</time>
      </trkpt>
      <trkpt lat="31.231826124306608" lon="35.33757966766312">
        <ele>29</ele>
        <time>2026-06-10T15:01:14.978Z</time>
      </trkpt>
      <trkpt lat="31.23192987364374" lon="35.337579853927636">
        <ele>29</ele>
        <time>2026-06-10T15:01:15.978Z</time>
      </trkpt>
      <trkpt lat="31.232127872827526" lon="35.33766385922575">
        <ele>29</ele>
        <time>2026-06-10T15:01:16.978Z</time>
      </trkpt>
      <trkpt lat="31.232929927846712" lon="35.33767987797439">
        <ele>31</ele>
        <time>2026-06-10T15:01:17.978Z</time>
      </trkpt>
      <trkpt lat="31.234709871591104" lon="35.33790991465546">
        <ele>38</ele>
        <time>2026-06-10T15:01:18.978Z</time>
      </trkpt>
      <trkpt lat="31.23525879312885" lon="35.337866142493475">
        <ele>38</ele>
        <time>2026-06-10T15:01:19.978Z</time>
      </trkpt>
      <trkpt lat="31.23545545047464" lon="35.33785045613928">
        <ele>40</ele>
        <time>2026-06-10T15:01:20.978Z</time>
      </trkpt>
      <trkpt lat="31.236589839382244" lon="35.337759971717595">
        <ele>42</ele>
        <time>2026-06-10T15:01:21.978Z</time>
      </trkpt>
      <trkpt lat="31.236749840604137" lon="35.33768993625842">
        <ele>42</ele>
        <time>2026-06-10T15:01:22.978Z</time>
      </trkpt>
      <trkpt lat="31.236939830413608" lon="35.33738986411817">
        <ele>42</ele>
        <time>2026-06-10T15:01:23.978Z</time>
      </trkpt>
      <trkpt lat="31.237189983662738" lon="35.33721999087676">
        <ele>42</ele>
        <time>2026-06-10T15:01:24.978Z</time>
      </trkpt>
      <trkpt lat="31.237449822666864" lon="35.337189629760154">
        <ele>40</ele>
        <time>2026-06-10T15:01:25.978Z</time>
      </trkpt>
      <trkpt lat="31.23784991885386" lon="35.337239921180306">
        <ele>42</ele>
        <time>2026-06-10T15:01:26.978Z</time>
      </trkpt>
      <trkpt lat="31.238899891947952" lon="35.33710990854598">
        <ele>43</ele>
        <time>2026-06-10T15:01:27.978Z</time>
      </trkpt>
      <trkpt lat="31.239769933516605" lon="35.33710990854598">
        <ele>46</ele>
        <time>2026-06-10T15:01:28.978Z</time>
      </trkpt>
      <trkpt lat="31.241029826723707" lon="35.3374399692738">
        <ele>42</ele>
        <time>2026-06-10T15:01:29.978Z</time>
      </trkpt>
      <trkpt lat="31.241839891117213" lon="35.3374897019004">
        <ele>35</ele>
        <time>2026-06-10T15:01:30.978Z</time>
      </trkpt>
      <trkpt lat="31.242075515733855" lon="35.337544649933534">
        <ele>35</ele>
        <time>2026-06-10T15:01:31.978Z</time>
      </trkpt>
      <trkpt lat="31.242399988526106" lon="35.33761990079924">
        <ele>33</ele>
        <time>2026-06-10T15:01:32.978Z</time>
      </trkpt>
      <trkpt lat="31.24298485911604" lon="35.33782888958966">
        <ele>33</ele>
        <time>2026-06-10T15:01:33.978Z</time>
      </trkpt>
      <trkpt lat="31.24323743380392" lon="35.33785831938367">
        <ele>38</ele>
        <time>2026-06-10T15:01:34.978Z</time>
      </trkpt>
      <trkpt lat="31.243678200121394" lon="35.33787847267214">
        <ele>38</ele>
        <time>2026-06-10T15:01:35.978Z</time>
      </trkpt>
      <trkpt lat="31.24370998688884" lon="35.337879926067885">
        <ele>38</ele>
        <time>2026-06-10T15:01:36.978Z</time>
      </trkpt>
      <trkpt lat="31.244779890286473" lon="35.33761990079924">
        <ele>34</ele>
        <time>2026-06-10T15:01:37.978Z</time>
      </trkpt>
      <trkpt lat="31.24521295529335" lon="35.337556757127274">
        <ele>32</ele>
        <time>2026-06-10T15:01:38.978Z</time>
      </trkpt>
      <trkpt lat="31.245669862158667" lon="35.3374897019004">
        <ele>35</ele>
        <time>2026-06-10T15:01:39.978Z</time>
      </trkpt>
      <trkpt lat="31.24662986949004" lon="35.3371998743087">
        <ele>35</ele>
        <time>2026-06-10T15:01:40.978Z</time>
      </trkpt>
      <trkpt lat="31.2481099273587" lon="35.33749994644895">
        <ele>38</ele>
        <time>2026-06-10T15:01:41.978Z</time>
      </trkpt>
      <trkpt lat="31.248459918390065" lon="35.33746995786138">
        <ele>41</ele>
        <time>2026-06-10T15:01:42.978Z</time>
      </trkpt>
      <trkpt lat="31.249209819343907" lon="35.33724997946434">
        <ele>44</ele>
        <time>2026-06-10T15:01:43.978Z</time>
      </trkpt>
      <trkpt lat="31.249625748015024" lon="35.337209932592735">
        <ele>44</ele>
        <time>2026-06-10T15:01:44.978Z</time>
      </trkpt>
      <trkpt lat="31.250459840531494" lon="35.33712983884953">
        <ele>46</ele>
        <time>2026-06-10T15:01:45.978Z</time>
      </trkpt>
      <trkpt lat="31.25082994813092" lon="35.3371598274371">
        <ele>47</ele>
        <time>2026-06-10T15:01:46.978Z</time>
      </trkpt>
      <trkpt lat="31.25145989473447" lon="35.33706986167438">
        <ele>45</ele>
        <time>2026-06-10T15:01:47.978Z</time>
      </trkpt>
      <trkpt lat="31.25208984133802" lon="35.336929977020546">
        <ele>45</ele>
        <time>2026-06-10T15:01:48.978Z</time>
      </trkpt>
      <trkpt lat="31.25262982217885" lon="35.3366699517519">
        <ele>40</ele>
        <time>2026-06-10T15:01:49.978Z</time>
      </trkpt>
      <trkpt lat="31.25283992855638" lon="35.33664983518384">
        <ele>40</ele>
        <time>2026-06-10T15:01:50.978Z</time>
      </trkpt>
      <trkpt lat="31.253009988062306" lon="35.336479775677915">
        <ele>40</ele>
        <time>2026-06-10T15:01:51.978Z</time>
      </trkpt>
      <trkpt lat="31.253309873938036" lon="35.335969969689174">
        <ele>37</ele>
        <time>2026-06-10T15:01:52.978Z</time>
      </trkpt>
      <trkpt lat="31.25333986252561" lon="35.33573993300811">
        <ele>37</ele>
        <time>2026-06-10T15:01:53.978Z</time>
      </trkpt>
      <trkpt lat="31.253299815654007" lon="35.335329964801595">
        <ele>35</ele>
        <time>2026-06-10T15:01:54.978Z</time>
      </trkpt>
      <trkpt lat="31.253469875159933" lon="35.335089869836494">
        <ele>35</ele>
        <time>2026-06-10T15:01:55.978Z</time>
      </trkpt>
      <trkpt lat="31.253919890238045" lon="35.33495985720217">
        <ele>35</ele>
        <time>2026-06-10T15:01:56.978Z</time>
      </trkpt>
      <trkpt lat="31.254239892681834" lon="35.33474993708916">
        <ele>32</ele>
        <time>2026-06-10T15:01:57.978Z</time>
      </trkpt>
      <trkpt lat="31.254439940775335" lon="35.33470989021755">
        <ele>32</ele>
        <time>2026-06-10T15:01:58.978Z</time>
      </trkpt>
      <trkpt lat="31.254521472059373" lon="35.33465534050953">
        <ele>29.5</ele>
        <time>2026-06-10T15:01:59.978Z</time>
      </trkpt>
      <trkpt lat="31.255889823791904" lon="35.333739824602155">
        <ele>27</ele>
        <time>2026-06-10T15:02:00.978Z</time>
      </trkpt>
      <trkpt lat="31.256229942803753" lon="35.333639986819925">
        <ele>27</ele>
        <time>2026-06-10T15:02:01.978Z</time>
      </trkpt>
      <trkpt lat="31.25733989307299" lon="35.33359993994832">
        <ele>24</ele>
        <time>2026-06-10T15:02:02.978Z</time>
      </trkpt>
      <trkpt lat="31.257869815629792" lon="35.33380986006133">
        <ele>24</ele>
        <time>2026-06-10T15:02:03.978Z</time>
      </trkpt>
      <trkpt lat="31.25878996235408" lon="35.3339998498708">
        <ele>21</ele>
        <time>2026-06-10T15:02:04.978Z</time>
      </trkpt>
      <trkpt lat="31.259279838039276" lon="35.33388995380454">
        <ele>19</ele>
        <time>2026-06-10T15:02:05.978Z</time>
      </trkpt>
      <trkpt lat="31.259469827848744" lon="35.33374988288618">
        <ele>21</ele>
        <time>2026-06-10T15:02:06.978Z</time>
      </trkpt>
      <trkpt lat="31.25953986330792" lon="35.33357963711574">
        <ele>21</ele>
        <time>2026-06-10T15:02:07.978Z</time>
      </trkpt>
      <trkpt lat="31.25974996968545" lon="35.333489857617536">
        <ele>21</ele>
        <time>2026-06-10T15:02:08.978Z</time>
      </trkpt>
      <trkpt lat="31.25995988979846" lon="35.333479985598025">
        <ele>16</ele>
        <time>2026-06-10T15:02:09.978Z</time>
      </trkpt>
      <trkpt lat="31.260439893464145" lon="35.333229646084376">
        <ele>16</ele>
        <time>2026-06-10T15:02:10.978Z</time>
      </trkpt>
      <trkpt lat="31.261449819686632" lon="35.33297986536428">
        <ele>11</ele>
        <time>2026-06-10T15:02:11.978Z</time>
      </trkpt>
      <trkpt lat="31.261709844955277" lon="35.332959935060735">
        <ele>11</ele>
        <time>2026-06-10T15:02:12.978Z</time>
      </trkpt>
      <trkpt lat="31.262409827018004" lon="35.332719840095635">
        <ele>10</ele>
        <time>2026-06-10T15:02:13.978Z</time>
      </trkpt>
      <trkpt lat="31.262959866142864" lon="35.332689851508064">
        <ele>10</ele>
        <time>2026-06-10T15:02:14.978Z</time>
      </trkpt>
      <trkpt lat="31.263309857174228" lon="35.332499861698594">
        <ele>7</ele>
        <time>2026-06-10T15:02:15.978Z</time>
      </trkpt>
      <trkpt lat="31.263589999010936" lon="35.33252966402165">
        <ele>7</ele>
        <time>2026-06-10T15:02:16.978Z</time>
      </trkpt>
      <trkpt lat="31.264340458758333" lon="35.33286382256889">
        <ele>4</ele>
        <time>2026-06-10T15:02:17.978Z</time>
      </trkpt>
      <trkpt lat="31.265339954167754" lon="35.333549834792684">
        <ele>8</ele>
        <time>2026-06-10T15:02:18.978Z</time>
      </trkpt>
      <trkpt lat="31.265669828631054" lon="35.334009908154826">
        <ele>9</ele>
        <time>2026-06-10T15:02:19.978Z</time>
      </trkpt>
      <trkpt lat="31.265775999406934" lon="35.33453089001471">
        <ele>9</ele>
        <time>2026-06-10T15:02:20.978Z</time>
      </trkpt>
      <trkpt lat="31.265846966188704" lon="35.33507291976525">
        <ele>8</ele>
        <time>2026-06-10T15:02:21.978Z</time>
      </trkpt>
      <trkpt lat="31.26605390606941" lon="35.33565592770999">
        <ele>7</ele>
        <time>2026-06-10T15:02:22.978Z</time>
      </trkpt>
      <trkpt lat="31.26615784167106" lon="35.33601783967058">
        <ele>7</ele>
        <time>2026-06-10T15:02:23.978Z</time>
      </trkpt>
      <trkpt lat="31.266393838816743" lon="35.33708196886812">
        <ele>6</ele>
        <time>2026-06-10T15:02:24.978Z</time>
      </trkpt>
      <trkpt lat="31.266454933579002" lon="35.33721887328965">
        <ele>9</ele>
        <time>2026-06-10T15:02:25.978Z</time>
      </trkpt>
      <trkpt lat="31.266510999199248" lon="35.3372818306971">
        <ele>9</ele>
        <time>2026-06-10T15:02:26.978Z</time>
      </trkpt>
      <trkpt lat="31.2665739566067" lon="35.33731293687179">
        <ele>9</ele>
        <time>2026-06-10T15:02:27.978Z</time>
      </trkpt>
      <trkpt lat="31.266717939079953" lon="35.337317966013806">
        <ele>9</ele>
        <time>2026-06-10T15:02:28.978Z</time>
      </trkpt>
      <trkpt lat="31.26697982699379" lon="35.33727382132278">
        <ele>9</ele>
        <time>2026-06-10T15:02:29.978Z</time>
      </trkpt>
      <trkpt lat="31.26708786041486" lon="35.33727382132278">
        <ele>9</ele>
        <time>2026-06-10T15:02:30.978Z</time>
      </trkpt>
      <trkpt lat="31.267208932352265" lon="35.337299898355454">
        <ele>9</ele>
        <time>2026-06-10T15:02:31.978Z</time>
      </trkpt>
      <trkpt lat="31.26761796923618" lon="35.33755265930785">
        <ele>10</ele>
        <time>2026-06-10T15:02:32.978Z</time>
      </trkpt>
      <trkpt lat="31.267697876714866" lon="35.33761878321213">
        <ele>10</ele>
        <time>2026-06-10T15:02:33.978Z</time>
      </trkpt>
      <trkpt lat="31.267789891387295" lon="35.33774395296896">
        <ele>10</ele>
        <time>2026-06-10T15:02:34.978Z</time>
      </trkpt>
      <trkpt lat="31.267839996542932" lon="35.33785384903521">
        <ele>10</ele>
        <time>2026-06-10T15:02:35.978Z</time>
      </trkpt>
      <trkpt lat="31.26792586448623" lon="35.33812095235559">
        <ele>3</ele>
        <time>2026-06-10T15:02:36.978Z</time>
      </trkpt>
      <trkpt lat="31.268118834528003" lon="35.3383748308951">
        <ele>1</ele>
        <time>2026-06-10T15:02:37.978Z</time>
      </trkpt>
      <trkpt lat="31.268572947425536" lon="35.339176885914284">
        <ele>-1</ele>
        <time>2026-06-10T15:02:38.978Z</time>
      </trkpt>
      <trkpt lat="31.26863087569097" lon="35.339254930747785">
        <ele>-1</ele>
        <time>2026-06-10T15:02:39.978Z</time>
      </trkpt>
      <trkpt lat="31.268795906054883" lon="35.339389972524124">
        <ele>-1</ele>
        <time>2026-06-10T15:02:40.978Z</time>
      </trkpt>
      <trkpt lat="31.26880829897633" lon="35.33939678650155">
        <ele>-2</ele>
        <time>2026-06-10T15:02:41.978Z</time>
      </trkpt>
      <trkpt lat="31.269066920930154" lon="35.33953898413939">
        <ele>-3</ele>
        <time>2026-06-10T15:02:42.978Z</time>
      </trkpt>
      <trkpt lat="31.269137887711924" lon="35.33960082395973">
        <ele>-3</ele>
        <time>2026-06-10T15:02:43.978Z</time>
      </trkpt>
      <trkpt lat="31.269277958630276" lon="35.33977591260767">
        <ele>-6</ele>
        <time>2026-06-10T15:02:44.978Z</time>
      </trkpt>
      <trkpt lat="31.269534817402096" lon="35.340028859824585">
        <ele>-6</ele>
        <time>2026-06-10T15:02:45.978Z</time>
      </trkpt>
      <trkpt lat="31.269675819643048" lon="35.340081945212525">
        <ele>-6</ele>
        <time>2026-06-10T15:02:46.978Z</time>
      </trkpt>
      <trkpt lat="31.270073866920335" lon="35.340125903639034">
        <ele>-12</ele>
        <time>2026-06-10T15:02:47.978Z</time>
      </trkpt>
      <trkpt lat="31.270526862230753" lon="35.34025796518306">
        <ele>-12</ele>
        <time>2026-06-10T15:02:48.978Z</time>
      </trkpt>
      <trkpt lat="31.270872941707214" lon="35.34018290058187">
        <ele>-16</ele>
        <time>2026-06-10T15:02:49.978Z</time>
      </trkpt>
      <trkpt lat="31.271125888924136" lon="35.340091817232036">
        <ele>-16</ele>
        <time>2026-06-10T15:02:50.978Z</time>
      </trkpt>
      <trkpt lat="31.271253852648748" lon="35.3400718869285">
        <ele>-16</ele>
        <time>2026-06-10T15:02:51.978Z</time>
      </trkpt>
      <trkpt lat="31.271325937017632" lon="35.34010373816126">
        <ele>-16</ele>
        <time>2026-06-10T15:02:52.978Z</time>
      </trkpt>
      <trkpt lat="31.271377904818458" lon="35.34015887245891">
        <ele>-16</ele>
        <time>2026-06-10T15:02:53.978Z</time>
      </trkpt>
      <trkpt lat="31.271512946594797" lon="35.34040194765632">
        <ele>-17</ele>
        <time>2026-06-10T15:02:54.978Z</time>
      </trkpt>
      <trkpt lat="31.27160384368011" lon="35.340454846779735">
        <ele>-17</ele>
        <time>2026-06-10T15:02:55.978Z</time>
      </trkpt>
      <trkpt lat="31.271800911541302" lon="35.34050998107739">
        <ele>-17</ele>
        <time>2026-06-10T15:02:56.978Z</time>
      </trkpt>
      <trkpt lat="31.272002822279994" lon="35.34050588325797">
        <ele>-17</ele>
        <time>2026-06-10T15:02:57.978Z</time>
      </trkpt>
      <trkpt lat="31.272224849586745" lon="35.34056790934282">
        <ele>-30</ele>
        <time>2026-06-10T15:02:58.978Z</time>
      </trkpt>
      <trkpt lat="31.272935821256098" lon="35.340675942763895">
        <ele>-40</ele>
        <time>2026-06-10T15:02:59.978Z</time>
      </trkpt>
      <trkpt lat="31.27300287648297" lon="35.340697921977146">
        <ele>-40</ele>
        <time>2026-06-10T15:03:00.978Z</time>
      </trkpt>
      <trkpt lat="31.273054844283795" lon="35.340746909545665">
        <ele>-40</ele>
        <time>2026-06-10T15:03:01.978Z</time>
      </trkpt>
      <trkpt lat="31.273093959832803" lon="35.340869844128264">
        <ele>-40</ele>
        <time>2026-06-10T15:03:02.978Z</time>
      </trkpt>
      <trkpt lat="31.273090979600497" lon="35.34094285981975">
        <ele>-40</ele>
        <time>2026-06-10T15:03:03.978Z</time>
      </trkpt>
      <trkpt lat="31.273052981638603" lon="35.341079950505794">
        <ele>-40</ele>
        <time>2026-06-10T15:03:04.978Z</time>
      </trkpt>
      <trkpt lat="31.272950908682144" lon="35.341247961102006">
        <ele>-40</ele>
        <time>2026-06-10T15:03:05.978Z</time>
      </trkpt>
      <trkpt lat="31.272852933545103" lon="35.34131594765147">
        <ele>-40</ele>
        <time>2026-06-10T15:03:06.978Z</time>
      </trkpt>
      <trkpt lat="31.272697961465223" lon="35.341389894665554">
        <ele>-58</ele>
        <time>2026-06-10T15:03:07.978Z</time>
      </trkpt>
      <trkpt lat="31.272643944754687" lon="35.341472968641064">
        <ele>-58</ele>
        <time>2026-06-10T15:03:08.978Z</time>
      </trkpt>
      <trkpt lat="31.272644876077283" lon="35.34155082721004">
        <ele>-58</ele>
        <time>2026-06-10T15:03:09.978Z</time>
      </trkpt>
      <trkpt lat="31.27266983552284" lon="35.34161881375951">
        <ele>-58</ele>
        <time>2026-06-10T15:03:10.978Z</time>
      </trkpt>
      <trkpt lat="31.272740988569133" lon="35.34172684718058">
        <ele>-58</ele>
        <time>2026-06-10T15:03:11.978Z</time>
      </trkpt>
      <trkpt lat="31.272948859772434" lon="35.3419388162033">
        <ele>-58</ele>
        <time>2026-06-10T15:03:12.978Z</time>
      </trkpt>
      <trkpt lat="31.273229932931734" lon="35.34214091320651">
        <ele>-55</ele>
        <time>2026-06-10T15:03:13.978Z</time>
      </trkpt>
      <trkpt lat="31.273500947807005" lon="35.34240987917207">
        <ele>-70</ele>
        <time>2026-06-10T15:03:14.978Z</time>
      </trkpt>
      <trkpt lat="31.27363282308652" lon="35.34251381477372">
        <ele>-70</ele>
        <time>2026-06-10T15:03:15.978Z</time>
      </trkpt>
      <trkpt lat="31.273775874237177" lon="35.34259782007183">
        <ele>-70</ele>
        <time>2026-06-10T15:03:16.978Z</time>
      </trkpt>
      <trkpt lat="31.27393196390417" lon="35.342728950293264">
        <ele>-70</ele>
        <time>2026-06-10T15:03:17.978Z</time>
      </trkpt>
      <trkpt lat="31.27401187138286" lon="35.34274999818392">
        <ele>-75</ele>
        <time>2026-06-10T15:03:18.978Z</time>
      </trkpt>
      <trkpt lat="31.274105934964997" lon="35.34271982333183">
        <ele>-75</ele>
        <time>2026-06-10T15:03:19.978Z</time>
      </trkpt>
      <trkpt lat="31.274233898689612" lon="35.342649974137174">
        <ele>-75</ele>
        <time>2026-06-10T15:03:20.978Z</time>
      </trkpt>
      <trkpt lat="31.274479954119325" lon="35.34257472327146">
        <ele>-75</ele>
        <time>2026-06-10T15:03:21.978Z</time>
      </trkpt>
      <trkpt lat="31.274620956360273" lon="35.34255386164532">
        <ele>-75</ele>
        <time>2026-06-10T15:03:22.978Z</time>
      </trkpt>
      <trkpt lat="31.274727872194227" lon="35.34256093969705">
        <ele>-75</ele>
        <time>2026-06-10T15:03:23.978Z</time>
      </trkpt>
      <trkpt lat="31.275322987332707" lon="35.34277085981006">
        <ele>-79</ele>
        <time>2026-06-10T15:03:24.978Z</time>
      </trkpt>
      <trkpt lat="31.275643921099096" lon="35.34283996394664">
        <ele>-82</ele>
        <time>2026-06-10T15:03:25.978Z</time>
      </trkpt>
      <trkpt lat="31.275724946164896" lon="35.34287684432142">
        <ele>-82</ele>
        <time>2026-06-10T15:03:26.978Z</time>
      </trkpt>
      <trkpt lat="31.27586892863815" lon="35.3429938184394">
        <ele>-82</ele>
        <time>2026-06-10T15:03:27.978Z</time>
      </trkpt>
      <trkpt lat="31.27595684549116" lon="35.34303796313043">
        <ele>-82</ele>
        <time>2026-06-10T15:03:28.978Z</time>
      </trkpt>
      <trkpt lat="31.276135845694004" lon="35.34308695069895">
        <ele>-86</ele>
        <time>2026-06-10T15:03:29.978Z</time>
      </trkpt>
      <trkpt lat="31.27620196959828" lon="35.34313388935776">
        <ele>-86</ele>
        <time>2026-06-10T15:03:30.978Z</time>
      </trkpt>
      <trkpt lat="31.276251888489394" lon="35.34320485613953">
        <ele>-86</ele>
        <time>2026-06-10T15:03:31.978Z</time>
      </trkpt>
      <trkpt lat="31.276304973877334" lon="35.34332387916723">
        <ele>-86</ele>
        <time>2026-06-10T15:03:32.978Z</time>
      </trkpt>
      <trkpt lat="31.276375940659104" lon="35.34338683657468">
        <ele>-86</ele>
        <time>2026-06-10T15:03:33.978Z</time>
      </trkpt>
      <trkpt lat="31.276544882577916" lon="35.34339894376842">
        <ele>-91</ele>
        <time>2026-06-10T15:03:34.978Z</time>
      </trkpt>
      <trkpt lat="31.2766169669468" lon="35.343440853285216">
        <ele>-91</ele>
        <time>2026-06-10T15:03:35.978Z</time>
      </trkpt>
      <trkpt lat="31.276646955534375" lon="35.34351088874439">
        <ele>-91</ele>
        <time>2026-06-10T15:03:36.978Z</time>
      </trkpt>
      <trkpt lat="31.276671914979932" lon="35.343759924406406">
        <ele>-91</ele>
        <time>2026-06-10T15:03:37.978Z</time>
      </trkpt>
      <trkpt lat="31.276661856695902" lon="35.343861997362865">
        <ele>-91</ele>
        <time>2026-06-10T15:03:38.978Z</time>
      </trkpt>
      <trkpt lat="31.2765769200752" lon="35.34409985715374">
        <ele>-94</ele>
        <time>2026-06-10T15:03:39.978Z</time>
      </trkpt>
      <trkpt lat="31.276561832649154" lon="35.3442429083044">
        <ele>-94</ele>
        <time>2026-06-10T15:03:40.978Z</time>
      </trkpt>
      <trkpt lat="31.27659293882384" lon="35.34462586815564">
        <ele>-94</ele>
        <time>2026-06-10T15:03:41.978Z</time>
      </trkpt>
      <trkpt lat="31.27664397530207" lon="35.344798907893875">
        <ele>-89</ele>
        <time>2026-06-10T15:03:42.978Z</time>
      </trkpt>
      <trkpt lat="31.27670097224491" lon="35.34487695272737">
        <ele>-89</ele>
        <time>2026-06-10T15:03:43.978Z</time>
      </trkpt>
      <trkpt lat="31.276791869330225" lon="35.344960958025474">
        <ele>-89</ele>
        <time>2026-06-10T15:03:44.978Z</time>
      </trkpt>
      <trkpt lat="31.276864450571843" lon="35.34500689043484">
        <ele>-89</ele>
        <time>2026-06-10T15:03:45.978Z</time>
      </trkpt>
      <trkpt lat="31.27689282469957" lon="35.34502484675552">
        <ele>-89</ele>
        <time>2026-06-10T15:03:46.978Z</time>
      </trkpt>
      <trkpt lat="31.277302979170596" lon="35.34522582617162">
        <ele>-99</ele>
        <time>2026-06-10T15:03:47.978Z</time>
      </trkpt>
      <trkpt lat="31.277605845278632" lon="35.34540482637446">
        <ele>-99</ele>
        <time>2026-06-10T15:03:48.978Z</time>
      </trkpt>
      <trkpt lat="31.278030900911187" lon="35.345538936828206">
        <ele>-99</ele>
        <time>2026-06-10T15:03:49.978Z</time>
      </trkpt>
      <trkpt lat="31.27818494166847" lon="35.34561195251968">
        <ele>-107</ele>
        <time>2026-06-10T15:03:50.978Z</time>
      </trkpt>
      <trkpt lat="31.27829595532185" lon="35.345692977585486">
        <ele>-107</ele>
        <time>2026-06-10T15:03:51.978Z</time>
      </trkpt>
      <trkpt lat="31.27864985790811" lon="35.34605786977838">
        <ele>-107</ele>
        <time>2026-06-10T15:03:52.978Z</time>
      </trkpt>
      <trkpt lat="31.27924981592409" lon="35.346907981043486">
        <ele>-111</ele>
        <time>2026-06-10T15:03:53.978Z</time>
      </trkpt>
      <trkpt lat="31.27947985260516" lon="35.3472769710558">
        <ele>-105</ele>
        <time>2026-06-10T15:03:54.978Z</time>
      </trkpt>
      <trkpt lat="31.279990962445535" lon="35.34833886507911">
        <ele>-111</ele>
        <time>2026-06-10T15:03:55.978Z</time>
      </trkpt>
      <trkpt lat="31.280159904364346" lon="35.348634839399935">
        <ele>-111</ele>
        <time>2026-06-10T15:03:56.978Z</time>
      </trkpt>
      <trkpt lat="31.280340953476898" lon="35.34890492295261">
        <ele>-101</ele>
        <time>2026-06-10T15:03:57.978Z</time>
      </trkpt>
      <trkpt lat="31.280457927594885" lon="35.34902897512232">
        <ele>-101</ele>
        <time>2026-06-10T15:03:58.978Z</time>
      </trkpt>
      <trkpt lat="31.280540815305876" lon="35.34908671712324">
        <ele>-101</ele>
        <time>2026-06-10T15:03:59.978Z</time>
      </trkpt>
      <trkpt lat="31.28069895388258" lon="35.34914967453069">
        <ele>-118</ele>
        <time>2026-06-10T15:04:00.978Z</time>
      </trkpt>
      <trkpt lat="31.281261845259262" lon="35.34926385468089">
        <ele>-118</ele>
        <time>2026-06-10T15:04:01.978Z</time>
      </trkpt>
      <trkpt lat="31.281672931052885" lon="35.34941789543818">
        <ele>-122</ele>
        <time>2026-06-10T15:04:02.978Z</time>
      </trkpt>
      <trkpt lat="31.28181207064864" lon="35.34943354165778">
        <ele>-122</ele>
        <time>2026-06-10T15:04:03.978Z</time>
      </trkpt>
      <trkpt lat="31.28202497099396" lon="35.34945794230978">
        <ele>-122</ele>
        <time>2026-06-10T15:04:04.978Z</time>
      </trkpt>
      <trkpt lat="31.28228889434163" lon="35.349559015447774">
        <ele>-122.5</ele>
        <time>2026-06-10T15:04:05.978Z</time>
      </trkpt>
      <trkpt lat="31.28229393695952" lon="35.34956094658884">
        <ele>-123</ele>
        <time>2026-06-10T15:04:06.978Z</time>
      </trkpt>
      <trkpt lat="31.282504229601567" lon="35.34959838575717">
        <ele>-123</ele>
        <time>2026-06-10T15:04:07.978Z</time>
      </trkpt>
      <trkpt lat="31.283305912091716" lon="35.349740878114275">
        <ele>-128</ele>
        <time>2026-06-10T15:04:08.978Z</time>
      </trkpt>
      <trkpt lat="31.283424935119413" lon="35.34977682716646">
        <ele>-128</ele>
        <time>2026-06-10T15:04:09.978Z</time>
      </trkpt>
      <trkpt lat="31.28350297995291" lon="35.34982097185748">
        <ele>-128</ele>
        <time>2026-06-10T15:04:10.978Z</time>
      </trkpt>
      <trkpt lat="31.283554947753732" lon="35.34987498856802">
        <ele>-128</ele>
        <time>2026-06-10T15:04:11.978Z</time>
      </trkpt>
      <trkpt lat="31.28367788233633" lon="35.350103907661975">
        <ele>-128</ele>
        <time>2026-06-10T15:04:12.978Z</time>
      </trkpt>
      <trkpt lat="31.283786847079995" lon="35.35037492253724">
        <ele>-128</ele>
        <time>2026-06-10T15:04:13.978Z</time>
      </trkpt>
      <trkpt lat="31.28416291514403" lon="35.35087299386128">
        <ele>-129</ele>
        <time>2026-06-10T15:04:14.978Z</time>
      </trkpt>
      <trkpt lat="31.284255861139055" lon="35.35109297225832">
        <ele>-129</ele>
        <time>2026-06-10T15:04:15.978Z</time>
      </trkpt>
      <trkpt lat="31.284269830977987" lon="35.35140477906327">
        <ele>-131</ele>
        <time>2026-06-10T15:04:16.978Z</time>
      </trkpt>
      <trkpt lat="31.28418396303469" lon="35.35210997653253">
        <ele>-131</ele>
        <time>2026-06-10T15:04:17.978Z</time>
      </trkpt>
      <trkpt lat="31.284147827717987" lon="35.352301828987194">
        <ele>-133</ele>
        <time>2026-06-10T15:04:18.978Z</time>
      </trkpt>
      <trkpt lat="31.284121936949834" lon="35.35259892089513">
        <ele>-133</ele>
        <time>2026-06-10T15:04:19.978Z</time>
      </trkpt>
      <trkpt lat="31.28414298484049" lon="35.35268497510295">
        <ele>-133</ele>
        <time>2026-06-10T15:04:20.978Z</time>
      </trkpt>
      <trkpt lat="31.284228852783787" lon="35.35280492945324">
        <ele>-133</ele>
        <time>2026-06-10T15:04:21.978Z</time>
      </trkpt>
      <trkpt lat="31.284306525088247" lon="35.35284292741514">
        <ele>-133</ele>
        <time>2026-06-10T15:04:22.978Z</time>
      </trkpt>
      <trkpt lat="31.284374884166752" lon="35.352868073125215">
        <ele>-133</ele>
        <time>2026-06-10T15:04:23.978Z</time>
      </trkpt>
      <trkpt lat="31.284527621072403" lon="35.35292544259709">
        <ele>-133</ele>
        <time>2026-06-10T15:04:24.978Z</time>
      </trkpt>
      <trkpt lat="31.284779823231247" lon="35.353019878708274">
        <ele>-128</ele>
        <time>2026-06-10T15:04:25.978Z</time>
      </trkpt>
      <trkpt lat="31.284959941021203" lon="35.35360996470474">
        <ele>-128</ele>
        <time>2026-06-10T15:04:26.978Z</time>
      </trkpt>
      <trkpt lat="31.2853151474591" lon="35.353795670430266">
        <ele>-128</ele>
        <time>2026-06-10T15:04:27.978Z</time>
      </trkpt>
      <trkpt lat="31.28559491676677" lon="35.35373234049378">
        <ele>-128</ele>
        <time>2026-06-10T15:04:28.978Z</time>
      </trkpt>
      <trkpt lat="31.285779877434223" lon="35.3538096402692">
        <ele>-124</ele>
        <time>2026-06-10T15:04:29.978Z</time>
      </trkpt>
      <trkpt lat="31.285867494629265" lon="35.35394118257398">
        <ele>-123.5</ele>
        <time>2026-06-10T15:04:30.978Z</time>
      </trkpt>
      <trkpt lat="31.285919948352575" lon="35.35401993291124">
        <ele>-123</ele>
        <time>2026-06-10T15:04:31.978Z</time>
      </trkpt>
      <trkpt lat="31.285689911671504" lon="35.35418999241717">
        <ele>-123</ele>
        <time>2026-06-10T15:04:32.978Z</time>
      </trkpt>
      <trkpt lat="31.285469933274463" lon="35.35445970344081">
        <ele>-125</ele>
        <time>2026-06-10T15:04:33.978Z</time>
      </trkpt>
      <trkpt lat="31.285069837087462" lon="35.354709856689944">
        <ele>-117</ele>
        <time>2026-06-10T15:04:34.978Z</time>
      </trkpt>
      <trkpt lat="31.28502997648038" lon="35.35498999852665">
        <ele>-117</ele>
        <time>2026-06-10T15:04:35.978Z</time>
      </trkpt>
      <trkpt lat="31.285219966289848" lon="35.35518986035563">
        <ele>-117</ele>
        <time>2026-06-10T15:04:36.978Z</time>
      </trkpt>
      <trkpt lat="31.28546825689379" lon="35.355300315215445">
        <ele>-117</ele>
        <time>2026-06-10T15:04:37.978Z</time>
      </trkpt>
      <trkpt lat="31.285579829340723" lon="35.35534986157752">
        <ele>-117</ele>
        <time>2026-06-10T15:04:38.978Z</time>
      </trkpt>
      <trkpt lat="31.285738526710983" lon="35.35536476273905">
        <ele>-118</ele>
        <time>2026-06-10T15:04:39.978Z</time>
      </trkpt>
      <trkpt lat="31.286070263819475" lon="35.355396055178254">
        <ele>-118</ele>
        <time>2026-06-10T15:04:40.978Z</time>
      </trkpt>
      <trkpt lat="31.28642994060583" lon="35.35542995532073">
        <ele>-117</ele>
        <time>2026-06-10T15:04:41.978Z</time>
      </trkpt>
      <trkpt lat="31.28700996831827" lon="35.35588984241836">
        <ele>-114</ele>
        <time>2026-06-10T15:04:42.978Z</time>
      </trkpt>
      <trkpt lat="31.28722994671531" lon="35.355999924749135">
        <ele>-114</ele>
        <time>2026-06-10T15:04:43.978Z</time>
      </trkpt>
      <trkpt lat="31.287499844003467" lon="35.35586991211481">
        <ele>-111</ele>
        <time>2026-06-10T15:04:44.978Z</time>
      </trkpt>
      <trkpt lat="31.28765984522536" lon="35.35560988684617">
        <ele>-111</ele>
        <time>2026-06-10T15:04:45.978Z</time>
      </trkpt>
      <trkpt lat="31.288269861525368" lon="35.35515987176805">
        <ele>-99</ele>
        <time>2026-06-10T15:04:46.978Z</time>
      </trkpt>
      <trkpt lat="31.28871361747716" lon="35.35502622713445">
        <ele>-97</ele>
        <time>2026-06-10T15:04:47.978Z</time>
      </trkpt>
      <trkpt lat="31.289099856222418" lon="35.35490990478344">
        <ele>-95</ele>
        <time>2026-06-10T15:04:48.978Z</time>
      </trkpt>
      <trkpt lat="31.289499952409415" lon="35.35500992883019">
        <ele>-95</ele>
        <time>2026-06-10T15:04:49.978Z</time>
      </trkpt>
      <trkpt lat="31.28976984969757" lon="35.35489984649941">
        <ele>-89</ele>
        <time>2026-06-10T15:04:50.978Z</time>
      </trkpt>
      <trkpt lat="31.28983988515675" lon="35.354619890927225">
        <ele>-89</ele>
        <time>2026-06-10T15:04:51.978Z</time>
      </trkpt>
      <trkpt lat="31.290089852141364" lon="35.35443995940179">
        <ele>-89</ele>
        <time>2026-06-10T15:04:52.978Z</time>
      </trkpt>
      <trkpt lat="31.290459959740787" lon="35.35438985424615">
        <ele>-89</ele>
        <time>2026-06-10T15:04:53.978Z</time>
      </trkpt>
      <trkpt lat="31.290839939359724" lon="35.354219981004746">
        <ele>-84</ele>
        <time>2026-06-10T15:04:54.978Z</time>
      </trkpt>
      <trkpt lat="31.29120986069463" lon="35.3539199088645">
        <ele>-84</ele>
        <time>2026-06-10T15:04:55.978Z</time>
      </trkpt>
      <trkpt lat="31.292049913675708" lon="35.353599906420705">
        <ele>-80</ele>
        <time>2026-06-10T15:04:56.978Z</time>
      </trkpt>
      <trkpt lat="31.29225983378872" lon="35.35312996103905">
        <ele>-83</ele>
        <time>2026-06-10T15:04:57.978Z</time>
      </trkpt>
      <trkpt lat="31.292929827263873" lon="35.350649848967414">
        <ele>-74</ele>
        <time>2026-06-10T15:04:58.978Z</time>
      </trkpt>
      <trkpt lat="31.293579890435485" lon="35.349209837970356">
        <ele>-73</ele>
        <time>2026-06-10T15:04:59.978Z</time>
      </trkpt>
      <trkpt lat="31.294044740224543" lon="35.34797836580859">
        <ele>-67.5</ele>
        <time>2026-06-10T15:05:00.978Z</time>
      </trkpt>
      <trkpt lat="31.294719829292294" lon="35.34618993132241">
        <ele>-62</ele>
        <time>2026-06-10T15:05:01.978Z</time>
      </trkpt>
      <trkpt lat="31.295149914066865" lon="35.34598988322891">
        <ele>-64</ele>
        <time>2026-06-10T15:05:02.978Z</time>
      </trkpt>
      <trkpt lat="31.295349962160362" lon="35.34578983513541">
        <ele>-64</ele>
        <time>2026-06-10T15:05:03.978Z</time>
      </trkpt>
      <trkpt lat="31.29648990101717" lon="35.345299959450216">
        <ele>-60</ele>
        <time>2026-06-10T15:05:04.978Z</time>
      </trkpt>
      <trkpt lat="31.296949974379316" lon="35.34471993173778">
        <ele>-60</ele>
        <time>2026-06-10T15:05:05.978Z</time>
      </trkpt>
      <trkpt lat="31.2971898830799" lon="35.344539813947826">
        <ele>-53</ele>
        <time>2026-06-10T15:05:06.978Z</time>
      </trkpt>
      <trkpt lat="31.297569862698836" lon="35.344129845741314">
        <ele>-52</ele>
        <time>2026-06-10T15:05:07.978Z</time>
      </trkpt>
      <trkpt lat="31.297739922204762" lon="35.34388993704073">
        <ele>-52</ele>
        <time>2026-06-10T15:05:08.978Z</time>
      </trkpt>
      <trkpt lat="31.298049866364522" lon="35.343239873869116">
        <ele>-51</ele>
        <time>2026-06-10T15:05:09.978Z</time>
      </trkpt>
      <trkpt lat="31.298299833349134" lon="35.34296997658096">
        <ele>-46</ele>
        <time>2026-06-10T15:05:10.978Z</time>
      </trkpt>
      <trkpt lat="31.29877983701482" lon="35.34263991585314">
        <ele>-46</ele>
        <time>2026-06-10T15:05:11.978Z</time>
      </trkpt>
      <trkpt lat="31.299129828046183" lon="35.342249877950174">
        <ele>-44</ele>
        <time>2026-06-10T15:05:12.978Z</time>
      </trkpt>
      <trkpt lat="31.299404940740875" lon="35.342282846770054">
        <ele>-44</ele>
        <time>2026-06-10T15:05:13.978Z</time>
      </trkpt>
      <trkpt lat="31.299547060568937" lon="35.34233183433857">
        <ele>-44</ele>
        <time>2026-06-10T15:05:14.978Z</time>
      </trkpt>
      <trkpt lat="31.299999869614837" lon="35.34248792400557">
        <ele>-41</ele>
        <time>2026-06-10T15:05:15.978Z</time>
      </trkpt>
      <trkpt lat="31.300077914448334" lon="35.34249090423787">
        <ele>-41</ele>
        <time>2026-06-10T15:05:16.978Z</time>
      </trkpt>
      <trkpt lat="31.300914987197107" lon="35.34228098412486">
        <ele>-38</ele>
        <time>2026-06-10T15:05:17.978Z</time>
      </trkpt>
      <trkpt lat="31.30134488570716" lon="35.34219791014935">
        <ele>-32</ele>
        <time>2026-06-10T15:05:18.978Z</time>
      </trkpt>
      <trkpt lat="31.301459997179954" lon="35.34214594234852">
        <ele>-32</ele>
        <time>2026-06-10T15:05:19.978Z</time>
      </trkpt>
      <trkpt lat="31.30163992870539" lon="35.342010900572184">
        <ele>-32</ele>
        <time>2026-06-10T15:05:20.978Z</time>
      </trkpt>
      <trkpt lat="31.301790989230373" lon="35.34192186613206">
        <ele>-32</ele>
        <time>2026-06-10T15:05:21.978Z</time>
      </trkpt>
      <trkpt lat="31.301908894670955" lon="35.34181383271099">
        <ele>-32</ele>
        <time>2026-06-10T15:05:22.978Z</time>
      </trkpt>
      <trkpt lat="31.302089943783507" lon="35.34155697393917">
        <ele>-32</ele>
        <time>2026-06-10T15:05:23.978Z</time>
      </trkpt>
      <trkpt lat="31.302253856560302" lon="35.34120269882387">
        <ele>-29</ele>
        <time>2026-06-10T15:05:24.978Z</time>
      </trkpt>
      <trkpt lat="31.302340842090715" lon="35.34108889120271">
        <ele>-29</ele>
        <time>2026-06-10T15:05:25.978Z</time>
      </trkpt>
      <trkpt lat="31.302433974350258" lon="35.34103282558247">
        <ele>-29</ele>
        <time>2026-06-10T15:05:26.978Z</time>
      </trkpt>
      <trkpt lat="31.302733860225988" lon="35.34100190567229">
        <ele>-29</ele>
        <time>2026-06-10T15:05:27.978Z</time>
      </trkpt>
      <trkpt lat="31.30280892482718" lon="35.34097191708472">
        <ele>-29</ele>
        <time>2026-06-10T15:05:28.978Z</time>
      </trkpt>
      <trkpt lat="31.303113839844922" lon="35.34074094908105">
        <ele>-27</ele>
        <time>2026-06-10T15:05:29.978Z</time>
      </trkpt>
      <trkpt lat="31.303148857574513" lon="35.34067277626707">
        <ele>-27</ele>
        <time>2026-06-10T15:05:30.978Z</time>
      </trkpt>
      <trkpt lat="31.30316487632315" lon="35.3405608312911">
        <ele>-27</ele>
        <time>2026-06-10T15:05:31.978Z</time>
      </trkpt>
      <trkpt lat="31.303090929309075" lon="35.33987295642211">
        <ele>-26</ele>
        <time>2026-06-10T15:05:32.978Z</time>
      </trkpt>
      <trkpt lat="31.303107879380313" lon="35.33924487246375">
        <ele>-23</ele>
        <time>2026-06-10T15:05:33.978Z</time>
      </trkpt>
      <trkpt lat="31.303039892830846" lon="35.338375948482216">
        <ele>-24</ele>
        <time>2026-06-10T15:05:34.978Z</time>
      </trkpt>
      <trkpt lat="31.30309390954138" lon="35.33764988938682">
        <ele>-22</ele>
        <time>2026-06-10T15:05:35.978Z</time>
      </trkpt>
      <trkpt lat="31.303137867967887" lon="35.337525650952585">
        <ele>-22</ele>
        <time>2026-06-10T15:05:36.978Z</time>
      </trkpt>
      <trkpt lat="31.303258567376254" lon="35.33729915329737">
        <ele>-22</ele>
        <time>2026-06-10T15:05:37.978Z</time>
      </trkpt>
      <trkpt lat="31.303278870208835" lon="35.33726096907096">
        <ele>-22</ele>
        <time>2026-06-10T15:05:38.978Z</time>
      </trkpt>
      <trkpt lat="31.30337498270068" lon="35.33714194604327">
        <ele>-15</ele>
        <time>2026-06-10T15:05:39.978Z</time>
      </trkpt>
      <trkpt lat="31.3034649484634" lon="35.33710096784907">
        <ele>-15</ele>
        <time>2026-06-10T15:05:40.978Z</time>
      </trkpt>
      <trkpt lat="31.303720875912628" lon="35.3370709792615">
        <ele>-15</ele>
        <time>2026-06-10T15:05:41.978Z</time>
      </trkpt>
      <trkpt lat="31.30390192502518" lon="35.336995728395785">
        <ele>-15</ele>
        <time>2026-06-10T15:05:42.978Z</time>
      </trkpt>
      <trkpt lat="31.30397289180695" lon="35.336936868807754">
        <ele>-15</ele>
        <time>2026-06-10T15:05:43.978Z</time>
      </trkpt>
      <trkpt lat="31.304179459158618" lon="35.33669900901688">
        <ele>-15</ele>
        <time>2026-06-10T15:05:44.978Z</time>
      </trkpt>
      <trkpt lat="31.30426290566317" lon="35.33660289652503">
        <ele>-15</ele>
        <time>2026-06-10T15:05:45.978Z</time>
      </trkpt>
      <trkpt lat="31.304328843302926" lon="35.33657290793746">
        <ele>-15</ele>
        <time>2026-06-10T15:05:46.978Z</time>
      </trkpt>
      <trkpt lat="31.304479903827904" lon="35.33659190691841">
        <ele>-15</ele>
        <time>2026-06-10T15:05:47.978Z</time>
      </trkpt>
      <trkpt lat="31.3045169704672" lon="35.33663195379001">
        <ele>-15</ele>
        <time>2026-06-10T15:05:48.978Z</time>
      </trkpt>
      <trkpt lat="31.30458681966186" lon="35.33676792688894">
        <ele>-15</ele>
        <time>2026-06-10T15:05:49.978Z</time>
      </trkpt>
      <trkpt lat="31.304675854101983" lon="35.33689887084586">
        <ele>-15</ele>
        <time>2026-06-10T15:05:50.978Z</time>
      </trkpt>
      <trkpt lat="31.30475762422586" lon="35.33699367948607">
        <ele>-11</ele>
        <time>2026-06-10T15:05:51.978Z</time>
      </trkpt>
      <trkpt lat="31.304788916665068" lon="35.337029814802776">
        <ele>-11</ele>
        <time>2026-06-10T15:05:52.978Z</time>
      </trkpt>
      <trkpt lat="31.30484796251762" lon="35.33707265564217">
        <ele>-11</ele>
        <time>2026-06-10T15:05:53.978Z</time>
      </trkpt>
      <trkpt lat="31.304984866939147" lon="35.33710394808137">
        <ele>-11</ele>
        <time>2026-06-10T15:05:54.978Z</time>
      </trkpt>
      <trkpt lat="31.305422961088038" lon="35.33707898863582">
        <ele>-11</ele>
        <time>2026-06-10T15:05:55.978Z</time>
      </trkpt>
      <trkpt lat="31.305467119430013" lon="35.33707910009049">
        <ele>-8</ele>
        <time>2026-06-10T15:05:56.978Z</time>
      </trkpt>
      <trkpt lat="31.30579195110035" lon="35.33707991995841">
        <ele>-5</ele>
        <time>2026-06-10T15:05:57.978Z</time>
      </trkpt>
      <trkpt lat="31.30596685348377" lon="35.33705794074516">
        <ele>-5</ele>
        <time>2026-06-10T15:05:58.978Z</time>
      </trkpt>
      <trkpt lat="31.30618683188081" lon="35.3369558677887">
        <ele>-5</ele>
        <time>2026-06-10T15:05:59.978Z</time>
      </trkpt>
      <trkpt lat="31.306283875695257" lon="35.33686981358088">
        <ele>-5</ele>
        <time>2026-06-10T15:06:00.978Z</time>
      </trkpt>
      <trkpt lat="31.306381850832295" lon="35.336720988230134">
        <ele>-5</ele>
        <time>2026-06-10T15:06:01.978Z</time>
      </trkpt>
      <trkpt lat="31.306509814556907" lon="35.3365967497959">
        <ele>-2</ele>
        <time>2026-06-10T15:06:02.978Z</time>
      </trkpt>
      <trkpt lat="31.30660890728106" lon="35.336555957866224">
        <ele>-2</ele>
        <time>2026-06-10T15:06:03.978Z</time>
      </trkpt>
      <trkpt lat="31.306877873246624" lon="35.33650492138799">
        <ele>-2</ele>
        <time>2026-06-10T15:06:04.978Z</time>
      </trkpt>
      <trkpt lat="31.30700881720354" lon="35.336524851691536">
        <ele>-2</ele>
        <time>2026-06-10T15:06:05.978Z</time>
      </trkpt>
      <trkpt lat="31.307306840434077" lon="35.336623944415685">
        <ele>1</ele>
        <time>2026-06-10T15:06:06.978Z</time>
      </trkpt>
      <trkpt lat="31.307458832281654" lon="35.336705900804084">
        <ele>1</ele>
        <time>2026-06-10T15:06:07.978Z</time>
      </trkpt>
      <trkpt lat="31.30771196576309" lon="35.336947858414376">
        <ele>1</ele>
        <time>2026-06-10T15:06:08.978Z</time>
      </trkpt>
      <trkpt lat="31.307992852657872" lon="35.337154984559604">
        <ele>1</ele>
        <time>2026-06-10T15:06:09.978Z</time>
      </trkpt>
      <trkpt lat="31.308385870793146" lon="35.33740290263451">
        <ele>1</ele>
        <time>2026-06-10T15:06:10.978Z</time>
      </trkpt>
      <trkpt lat="31.308544940692446" lon="35.33753682682373">
        <ele>1</ele>
        <time>2026-06-10T15:06:11.978Z</time>
      </trkpt>
      <trkpt lat="31.30889884327871" lon="35.33797995011464">
        <ele>1</ele>
        <time>2026-06-10T15:06:12.978Z</time>
      </trkpt>
      <trkpt lat="31.3090929309076" lon="35.33823997538328">
        <ele>5</ele>
        <time>2026-06-10T15:06:13.978Z</time>
      </trkpt>
      <trkpt lat="31.309304899930318" lon="35.338561654207744">
        <ele>5</ele>
        <time>2026-06-10T15:06:14.978Z</time>
      </trkpt>
      <trkpt lat="31.309413864673985" lon="35.338682912409666">
        <ele>5</ele>
        <time>2026-06-10T15:06:15.978Z</time>
      </trkpt>
      <trkpt lat="31.309532887701682" lon="35.33875183028173">
        <ele>5</ele>
        <time>2026-06-10T15:06:16.978Z</time>
      </trkpt>
      <trkpt lat="31.30968785978156" lon="35.33879392606305">
        <ele>5</ele>
        <time>2026-06-10T15:06:17.978Z</time>
      </trkpt>
      <trkpt lat="31.30976683593765" lon="35.33879392606305">
        <ele>12</ele>
        <time>2026-06-10T15:06:18.978Z</time>
      </trkpt>
      <trkpt lat="31.30985084123576" lon="35.338765986385184">
        <ele>12</ele>
        <time>2026-06-10T15:06:19.978Z</time>
      </trkpt>
      <trkpt lat="31.309924974514356" lon="35.33871085208753">
        <ele>12</ele>
        <time>2026-06-10T15:06:20.978Z</time>
      </trkpt>
      <trkpt lat="31.31012893416276" lon="35.33842381846362">
        <ele>12</ele>
        <time>2026-06-10T15:06:21.978Z</time>
      </trkpt>
      <trkpt lat="31.310398831450915" lon="35.3382479847576">
        <ele>12</ele>
        <time>2026-06-10T15:06:22.978Z</time>
      </trkpt>
      <trkpt lat="31.31061992743507" lon="35.33814591180114">
        <ele>25</ele>
        <time>2026-06-10T15:06:23.978Z</time>
      </trkpt>
      <trkpt lat="31.310691825539436" lon="35.338091895090606">
        <ele>25</ele>
        <time>2026-06-10T15:06:24.978Z</time>
      </trkpt>
      <trkpt lat="31.310745842249972" lon="35.337976969882334">
        <ele>21</ele>
        <time>2026-06-10T15:06:25.978Z</time>
      </trkpt>
      <trkpt lat="31.310814946386554" lon="35.337718993523396">
        <ele>21</ele>
        <time>2026-06-10T15:06:26.978Z</time>
      </trkpt>
      <trkpt lat="31.310893922542643" lon="35.33757966766312">
        <ele>21</ele>
        <time>2026-06-10T15:06:27.978Z</time>
      </trkpt>
      <trkpt lat="31.31099487791199" lon="35.337462693545135">
        <ele>21</ele>
        <time>2026-06-10T15:06:28.978Z</time>
      </trkpt>
      <trkpt lat="31.311088941494127" lon="35.337384834976156">
        <ele>21</ele>
        <time>2026-06-10T15:06:29.978Z</time>
      </trkpt>
      <trkpt lat="31.311238884431994" lon="35.33730492749747">
        <ele>21</ele>
        <time>2026-06-10T15:06:30.978Z</time>
      </trkpt>
      <trkpt lat="31.311466872203354" lon="35.33726972350336">
        <ele>27</ele>
        <time>2026-06-10T15:06:31.978Z</time>
      </trkpt>
      <trkpt lat="31.31166598897426" lon="35.33718385556006">
        <ele>26</ele>
        <time>2026-06-10T15:06:32.978Z</time>
      </trkpt>
      <trkpt lat="31.31177998285994" lon="35.337164856579115">
        <ele>26</ele>
        <time>2026-06-10T15:06:33.978Z</time>
      </trkpt>
      <trkpt lat="31.312138914588218" lon="35.33716578790171">
        <ele>26</ele>
        <time>2026-06-10T15:06:34.978Z</time>
      </trkpt>
      <trkpt lat="31.31236485344987" lon="35.337197825398995">
        <ele>36</ele>
        <time>2026-06-10T15:06:35.978Z</time>
      </trkpt>
      <trkpt lat="31.312426879534726" lon="35.337172865953434">
        <ele>36</ele>
        <time>2026-06-10T15:06:36.978Z</time>
      </trkpt>
      <trkpt lat="31.312603830827857" lon="35.33693891771746">
        <ele>36</ele>
        <time>2026-06-10T15:06:37.978Z</time>
      </trkpt>
      <trkpt lat="31.31266287668041" lon="35.33689272411673">
        <ele>36</ele>
        <time>2026-06-10T15:06:38.978Z</time>
      </trkpt>
      <trkpt lat="31.3127379412816" lon="35.33686664708406">
        <ele>36</ele>
        <time>2026-06-10T15:06:39.978Z</time>
      </trkpt>
      <trkpt lat="31.312789909082426" lon="35.33686795093569">
        <ele>36</ele>
        <time>2026-06-10T15:06:40.978Z</time>
      </trkpt>
      <trkpt lat="31.312852866489877" lon="35.33689887084586">
        <ele>36</ele>
        <time>2026-06-10T15:06:41.978Z</time>
      </trkpt>
      <trkpt lat="31.312907814523008" lon="35.33696592607273">
        <ele>36</ele>
        <time>2026-06-10T15:06:42.978Z</time>
      </trkpt>
      <trkpt lat="31.31303782715733" lon="35.33726283171615">
        <ele>39</ele>
        <time>2026-06-10T15:06:43.978Z</time>
      </trkpt>
      <trkpt lat="31.313170820023956" lon="35.33745785066764">
        <ele>51</ele>
        <time>2026-06-10T15:06:44.978Z</time>
      </trkpt>
      <trkpt lat="31.313350937813915" lon="35.337643928922205">
        <ele>51</ele>
        <time>2026-06-10T15:06:45.978Z</time>
      </trkpt>
      <trkpt lat="31.313425816150588" lon="35.337747864523855">
        <ele>51</ele>
        <time>2026-06-10T15:06:46.978Z</time>
      </trkpt>
      <trkpt lat="31.313495851609762" lon="35.33780597905381">
        <ele>51</ele>
        <time>2026-06-10T15:06:47.978Z</time>
      </trkpt>
      <trkpt lat="31.313652872599352" lon="35.337896876139126">
        <ele>51</ele>
        <time>2026-06-10T15:06:48.978Z</time>
      </trkpt>
      <trkpt lat="31.313696831025858" lon="35.33795983354658">
        <ele>51</ele>
        <time>2026-06-10T15:06:49.978Z</time>
      </trkpt>
      <trkpt lat="31.31375494555581" lon="35.33812262873626">
        <ele>59</ele>
        <time>2026-06-10T15:06:50.978Z</time>
      </trkpt>
      <trkpt lat="31.31381287382125" lon="35.338206820298886">
        <ele>59</ele>
        <time>2026-06-10T15:06:51.978Z</time>
      </trkpt>
      <trkpt lat="31.31387788013841" lon="35.33823699515098">
        <ele>59</ele>
        <time>2026-06-10T15:06:52.978Z</time>
      </trkpt>
      <trkpt lat="31.31416882531722" lon="35.33828486513238">
        <ele>63</ele>
        <time>2026-06-10T15:06:53.978Z</time>
      </trkpt>
      <trkpt lat="31.3148019384176" lon="35.33826083700942">
        <ele>59</ele>
        <time>2026-06-10T15:06:54.978Z</time>
      </trkpt>
      <trkpt lat="31.314943871981143" lon="35.33827499311287">
        <ele>59</ele>
        <time>2026-06-10T15:06:55.978Z</time>
      </trkpt>
      <trkpt lat="31.315097912738427" lon="35.338349871449545">
        <ele>59</ele>
        <time>2026-06-10T15:06:56.978Z</time>
      </trkpt>
      <trkpt lat="31.315370976523408" lon="35.33856593829168">
        <ele>59</ele>
        <time>2026-06-10T15:06:57.978Z</time>
      </trkpt>
      <trkpt lat="31.315434865253454" lon="35.33867695194506">
        <ele>59</ele>
        <time>2026-06-10T15:06:58.978Z</time>
      </trkpt>
      <trkpt lat="31.315532840390492" lon="35.33896882844647">
        <ele>60</ele>
        <time>2026-06-10T15:06:59.978Z</time>
      </trkpt>
      <trkpt lat="31.315623923740326" lon="35.33952985717796">
        <ele>54</ele>
        <time>2026-06-10T15:07:00.978Z</time>
      </trkpt>
      <trkpt lat="31.315617963275717" lon="35.33965297802507">
        <ele>54</ele>
        <time>2026-06-10T15:07:01.978Z</time>
      </trkpt>
      <trkpt lat="31.315554819603744" lon="35.33983588978281">
        <ele>48</ele>
        <time>2026-06-10T15:07:02.978Z</time>
      </trkpt>
      <trkpt lat="31.31543687092193" lon="35.340082460829436">
        <ele>48</ele>
        <time>2026-06-10T15:07:03.978Z</time>
      </trkpt>
      <trkpt lat="31.315309881761145" lon="35.34034793094578">
        <ele>48</ele>
        <time>2026-06-10T15:07:04.978Z</time>
      </trkpt>
      <trkpt lat="31.31528883387049" lon="35.34053196029064">
        <ele>48</ele>
        <time>2026-06-10T15:07:05.978Z</time>
      </trkpt>
      <trkpt lat="31.31532496918719" lon="35.34068097190591">
        <ele>38</ele>
        <time>2026-06-10T15:07:06.978Z</time>
      </trkpt>
      <trkpt lat="31.315360918239374" lon="35.34073796884875">
        <ele>38</ele>
        <time>2026-06-10T15:07:07.978Z</time>
      </trkpt>
      <trkpt lat="31.31542499323394" lon="35.34079291688188">
        <ele>38</ele>
        <time>2026-06-10T15:07:08.978Z</time>
      </trkpt>
      <trkpt lat="31.31551887055156" lon="35.340820856559745">
        <ele>38</ele>
        <time>2026-06-10T15:07:09.978Z</time>
      </trkpt>
      <trkpt lat="31.315676822863747" lon="35.34079291688188">
        <ele>38</ele>
        <time>2026-06-10T15:07:10.978Z</time>
      </trkpt>
      <trkpt lat="31.315943926184115" lon="35.3406779916736">
        <ele>38</ele>
        <time>2026-06-10T15:07:11.978Z</time>
      </trkpt>
      <trkpt lat="31.31597391477169" lon="35.34066998229928">
        <ele>38</ele>
        <time>2026-06-10T15:07:12.978Z</time>
      </trkpt>
      <trkpt lat="31.31603482326943" lon="35.34065396355064">
        <ele>38</ele>
        <time>2026-06-10T15:07:13.978Z</time>
      </trkpt>
      <trkpt lat="31.316071889908727" lon="35.34066588447986">
        <ele>38</ele>
        <time>2026-06-10T15:07:14.978Z</time>
      </trkpt>
      <trkpt lat="31.316108956548028" lon="35.34072083251299">
        <ele>38</ele>
        <time>2026-06-10T15:07:15.978Z</time>
      </trkpt>
      <trkpt lat="31.316112868102927" lon="35.34080278890139">
        <ele>38</ele>
        <time>2026-06-10T15:07:16.978Z</time>
      </trkpt>
      <trkpt lat="31.316088839979965" lon="35.34090691076756">
        <ele>38</ele>
        <time>2026-06-10T15:07:17.978Z</time>
      </trkpt>
      <trkpt lat="31.316003903359263" lon="35.34111198800308">
        <ele>38</ele>
        <time>2026-06-10T15:07:18.978Z</time>
      </trkpt>
      <trkpt lat="31.315986953288025" lon="35.34119096415917">
        <ele>38</ele>
        <time>2026-06-10T15:07:19.978Z</time>
      </trkpt>
      <trkpt lat="31.315986953288025" lon="35.34135692584567">
        <ele>38</ele>
        <time>2026-06-10T15:07:20.978Z</time>
      </trkpt>
      <trkpt lat="31.316009863823872" lon="35.34143292176946">
        <ele>35</ele>
        <time>2026-06-10T15:07:21.978Z</time>
      </trkpt>
      <trkpt lat="31.316078967960454" lon="35.341505937460944">
        <ele>35</ele>
        <time>2026-06-10T15:07:22.978Z</time>
      </trkpt>
      <trkpt lat="31.316155895206837" lon="35.34153387713881">
        <ele>35</ele>
        <time>2026-06-10T15:07:23.978Z</time>
      </trkpt>
      <trkpt lat="31.316288888073466" lon="35.34154989588745">
        <ele>35</ele>
        <time>2026-06-10T15:07:24.978Z</time>
      </trkpt>
      <trkpt lat="31.316618948801285" lon="35.34147576260885">
        <ele>46</ele>
        <time>2026-06-10T15:07:25.978Z</time>
      </trkpt>
      <trkpt lat="31.31672381572553" lon="35.34142081457572">
        <ele>46</ele>
        <time>2026-06-10T15:07:26.978Z</time>
      </trkpt>
      <trkpt lat="31.317003957562235" lon="35.34116190689419">
        <ele>48</ele>
        <time>2026-06-10T15:07:27.978Z</time>
      </trkpt>
      <trkpt lat="31.317121863002818" lon="35.341089822525305">
        <ele>48</ele>
        <time>2026-06-10T15:07:28.978Z</time>
      </trkpt>
      <trkpt lat="31.31723995470792" lon="35.34104791300851">
        <ele>52</ele>
        <time>2026-06-10T15:07:29.978Z</time>
      </trkpt>
      <trkpt lat="31.31744186544661" lon="35.34101289527892">
        <ele>52</ele>
        <time>2026-06-10T15:07:30.978Z</time>
      </trkpt>
      <trkpt lat="31.317850902330523" lon="35.341026865117854">
        <ele>52</ele>
        <time>2026-06-10T15:07:31.978Z</time>
      </trkpt>
      <trkpt lat="31.31817183609691" lon="35.34099184738827">
        <ele>56</ele>
        <time>2026-06-10T15:07:32.978Z</time>
      </trkpt>
      <trkpt lat="31.31850394573444" lon="35.34099091606567">
        <ele>56</ele>
        <time>2026-06-10T15:07:33.978Z</time>
      </trkpt>
      <trkpt lat="31.318671956330657" lon="35.341007866136906">
        <ele>56</ele>
        <time>2026-06-10T15:07:34.978Z</time>
      </trkpt>
      <trkpt lat="31.319459855246393" lon="35.3412166686628">
        <ele>62</ele>
        <time>2026-06-10T15:07:35.978Z</time>
      </trkpt>
      <trkpt lat="31.319488492789443" lon="35.34123405734309">
        <ele>62</ele>
        <time>2026-06-10T15:07:36.978Z</time>
      </trkpt>
    </trkseg>
  </trk>
</gpx>